Wind From: 11-12-2017 06:00 Until: 12-12-2017 06:00 warning for: Wind Level: Orange info button

Power and phone distribution networks may be disrupted for relatively long periods., Roofs and chimneys can be damaged. , Tree branches may break. , Vehicles can be deported. , Traffic may be disrupted, particularly on secondary roads in forest areas. Limit your trips. , Limit your speed in highway driving, especially if you drive a vehicle or hitch sensitive to wind. , Do not go for walks in forests or along the coast., In town, be vigilant against possible falling objects., Do not work on roofs and do not touch any electrical line fallen on the ground., Store or secure sensitive objects to wind or likely to be damaged., Always install power generators outside buildings. 


Meteo18 Weather Cam more information Meteo18 Weather Cam


Thunder radar more information blitzortung!


Rain radar more information rain snow radar


Visit our other weather sites:

Template documentation
and downloads

And another site



Weather Underground History page Text

Daily Summary for May 21, 2017 Units:  English    Metric   Both
« Previous Day
Next Day »
Daily Weekly Monthly Yearly Custom
  High: Low: Average:
Temperature: 69.3 °F 42.8 °F 57.7 °F
Dew Point: 53.2 °F 41.7 °F 48.2 °F
Humidity: 97 % 47 % 74 %
Wind Speed: 11 mph 0 mph 2.4 mph
Wind Gust: 14 mph - -
Wind:- - ENE
Pressure: 30.3 in 30.1 in -
Precipitation: 0.01 in    
Historical Graphs
 
 
Tabular Data for May 21, 2017
Time Temperature Dew Point Pressure Wind Wind Speed Wind Gust Humidity Rainfall Rate (Hourly)
00:02 47.8 °F 46.4 °F 30.3 in Calm     95 % 0 in
00:07 47.8 °F 46.4 °F 30.3 in WNW 1 mph   95 % 0 in
00:12 47.7 °F 46.2 °F 30.3 in Calm     95 % 0 in
00:17 47.7 °F 46.2 °F 30.3 in Calm   2 mph 95 % 0 in
00:22 47.5 °F 46 °F 30.3 in Calm   2 mph 95 % 0 in
00:27 47.5 °F 46.4 °F 30.3 in Calm   2 mph 96 % 0 in
00:37 47.7 °F 46.6 °F 30.3 in NNE 1 mph 1 mph 96 % 0 in
00:42 47.5 °F 46.4 °F 30.3 in Calm   2 mph 96 % 0 in
00:52 46.9 °F 45.5 °F 30.3 in Calm   2 mph 95 % 0 in
01:02 46.4 °F 45.3 °F 30.3 in Calm   1 mph 96 % 0 in
01:12 46.2 °F 45.1 °F 30.3 in Calm   1 mph 96 % 0 in
01:17 46.2 °F 45.1 °F 30.3 in Calm   1 mph 96 % 0 in
01:22 46.2 °F 45.1 °F 30.3 in Calm   1 mph 96 % 0 in
01:32 46.2 °F 45.1 °F 30.3 in Calm   1 mph 96 % 0 in
01:42 46 °F 45 °F 30.3 in Calm     96 % 0.01 in
01:52 45.9 °F 44.8 °F 30.3 in Calm     96 % 0.01 in
01:57 45.7 °F 44.6 °F 30.3 in Calm     96 % 0.01 in
02:02 45.5 °F 44.4 °F 30.3 in Calm     96 % 0.01 in
02:07 45.5 °F 44.4 °F 30.3 in Calm     96 % 0.01 in
02:12 45.3 °F 44.2 °F 30.3 in Calm     96 % 0.01 in
02:17 45.3 °F 44.2 °F 30.3 in Calm     96 % 0.01 in
02:22 45.5 °F 44.4 °F 30.3 in Calm     96 % 0.01 in
02:32 45.3 °F 44.6 °F 30.3 in Calm     97 % 0.01 in
02:37 45.5 °F 44.8 °F 30.3 in Calm     97 % 0.01 in
02:42 45.5 °F 44.4 °F 30.3 in Calm     96 % 0 in
02:52 45.1 °F 44.1 °F 30.3 in Calm     96 % 0 in
03:02 44.8 °F 43.7 °F 30.3 in Calm     96 % 0 in
03:12 44.8 °F 44.1 °F 30.3 in Calm     97 % 0 in
03:17 45 °F 44.2 °F 30.3 in Calm     97 % 0 in
03:22 45 °F 44.2 °F 30.3 in Calm     97 % 0 in
03:27 45.1 °F 44.4 °F 30.3 in Calm     97 % 0 in
03:32 45.1 °F 44.4 °F 30.3 in Calm     97 % 0 in
03:42 44.6 °F 43.5 °F 30.3 in Calm   1 mph 96 % 0 in
03:52 44.1 °F 43 °F 30.3 in ENE 1 mph 1 mph 96 % 0 in
04:02 43.9 °F 42.8 °F 30.3 in Calm   3 mph 96 % 0 in
04:12 43.5 °F 42.4 °F 30.3 in Calm   2 mph 96 % 0 in
04:17 43.9 °F 43.2 °F 30.3 in Calm   1 mph 97 % 0 in
04:22 43.9 °F 43.2 °F 30.3 in Calm   1 mph 97 % 0 in
04:32 43.2 °F 42.1 °F 30.3 in Calm     96 % 0 in
04:42 43.3 °F 42.6 °F 30.3 in Calm     97 % 0 in
04:47 43.3 °F 42.6 °F 30.3 in Calm     97 % 0 in
04:52 43.3 °F 42.6 °F 30.3 in Calm     97 % 0 in
05:02 43.2 °F 42.4 °F 30.3 in Calm     97 % 0 in
05:12 42.8 °F 41.7 °F 30.3 in Calm     96 % 0 in
05:17 43.2 °F 42.4 °F 30.3 in Calm     97 % 0 in
05:22 43.3 °F 42.6 °F 30.3 in Calm     97 % 0 in
05:32 43 °F 42.3 °F 30.3 in Calm     97 % 0 in
05:42 42.8 °F 42.1 °F 30.3 in Calm     97 % 0 in
05:52 42.8 °F 42.1 °F 30.3 in Calm     97 % 0 in
05:57 42.8 °F 42.1 °F 30.3 in Calm     97 % 0 in
06:02 42.8 °F 42.1 °F 30.3 in Calm     97 % 0 in
06:07 43 °F 42.3 °F 30.3 in Calm     97 % 0 in
06:12 43 °F 42.3 °F 30.3 in Calm     97 % 0 in
06:17 43.2 °F 42.4 °F 30.3 in Calm     97 % 0 in
06:22 43.2 °F 42.4 °F 30.3 in Calm     97 % 0 in
06:32 43.2 °F 42.4 °F 30.3 in Calm     97 % 0 in
06:42 43.7 °F 43 °F 30.3 in Calm     97 % 0 in
06:47 43.5 °F 42.4 °F 30.3 in North 1 mph   96 % 0 in
06:52 44.1 °F 43.3 °F 30.3 in Calm     97 % 0 in
06:57 44.2 °F 43.2 °F 30.3 in Calm   1 mph 96 % 0 in
07:02 44.8 °F 43.7 °F 30.3 in Calm   1 mph 96 % 0 in
07:12 45.7 °F 44.6 °F 30.3 in Calm     96 % 0 in
07:17 46.9 °F 46.2 °F 30.3 in Calm     97 % 0 in
07:22 47.1 °F 46 °F 30.3 in Calm     96 % 0 in
07:32 48 °F 46.9 °F 30.3 in Calm     96 % 0 in
07:37 48.4 °F 47.3 °F 30.3 in Calm   1 mph 96 % 0 in
07:42 48.6 °F 47.5 °F 30.3 in Calm   1 mph 96 % 0 in
07:47 49.1 °F 48 °F 30.3 in Calm   1 mph 96 % 0 in
07:52 49.8 °F 48.9 °F 30.3 in Calm   1 mph 97 % 0 in
08:02 51.6 °F 50.7 °F 30.3 in Calm     97 % 0 in
08:12 52 °F 50.5 °F 30.3 in Calm     95 % 0 in
08:17 52 °F 50.5 °F 30.3 in Calm     95 % 0 in
08:22 52.5 °F 51.1 °F 30.3 in Calm     95 % 0 in
08:32 53.1 °F 51.1 °F 30.3 in Calm     93 % 0 in
08:42 53.4 °F 50.9 °F 30.3 in Calm     91 % 0 in
08:47 54 °F 50.7 °F 30.3 in Calm     89 % 0 in
08:52 54.3 °F 50.5 °F 30.3 in Calm     87 % 0 in
09:02 54.9 °F 51.1 °F 30.3 in Calm   2 mph 87 % 0 in
09:12 55.8 °F 51.3 °F 30.3 in Calm   3 mph 85 % 0 in
09:17 55.9 °F 51.4 °F 30.3 in NE 2 mph 3 mph 85 % 0 in
09:22 56.1 °F 51.6 °F 30.3 in NE 2 mph 3 mph 85 % 0 in
09:32 56.8 °F 52 °F 30.3 in ESE 1 mph 3 mph 84 % 0 in
09:42 57.4 °F 52.3 °F 30.3 in ENE 3 mph 4 mph 83 % 0 in
09:52 57.9 °F 52.2 °F 30.3 in NE 4 mph 4 mph 81 % 0 in
09:57 58.1 °F 51.6 °F 30.3 in ENE 4 mph 6 mph 79 % 0 in
10:02 58.5 °F 52.7 °F 30.3 in ENE 4 mph 6 mph 81 % 0 in
10:12 58.8 °F 52.3 °F 30.3 in ENE 2 mph 6 mph 79 % 0 in
10:17 59 °F 51.1 °F 30.3 in East 3 mph 6 mph 75 % 0 in
10:22 59.4 °F 51.8 °F 30.3 in NE 2 mph 6 mph 76 % 0 in
10:32 59.5 °F 51.6 °F 30.3 in NNE 3 mph 7 mph 75 % 0 in
10:42 60.1 °F 52.9 °F 30.3 in ESE 6 mph 8 mph 77 % 0 in
10:47 60.4 °F 52.9 °F 30.3 in ENE 8 mph 8 mph 76 % 0 in
10:52 60.3 °F 52 °F 30.3 in NNE 5 mph 7 mph 74 % 0 in
11:02 61 °F 52.3 °F 30.3 in ENE 6 mph 8 mph 73 % 0 in
11:12 61.3 °F 51.8 °F 30.3 in ENE 2 mph 7 mph 71 % 0 in
11:17 61.5 °F 51.6 °F 30.3 in NNE 4 mph 7 mph 70 % 0 in
11:22 61.7 °F 51.4 °F 30.3 in NE 3 mph 7 mph 69 % 0 in
11:32 62.2 °F 49.5 °F 30.3 in ENE 5 mph 9 mph 63 % 0 in
11:42 63.1 °F 50.7 °F 30.3 in NE 2 mph 9 mph 64 % 0 in
11:47 63.3 °F 51.8 °F 30.3 in ENE 2 mph 7 mph 66 % 0 in
11:52 63.3 °F 50.9 °F 30.3 in ENE 6 mph 7 mph 64 % 0 in
12:02 63.3 °F 50.9 °F 30.3 in ENE 3 mph 9 mph 64 % 0 in
12:12 63.7 °F 50.4 °F 30.3 in East 6 mph 11 mph 62 % 0 in
12:17 63.9 °F 50.5 °F 30.3 in East 4 mph 11 mph 62 % 0 in
12:22 63.3 °F 48.7 °F 30.3 in ENE 2 mph 11 mph 59 % 0 in
12:32 64 °F 49.8 °F 30.3 in NNE 3 mph 11 mph 60 % 0 in
12:37 63.9 °F 49.6 °F 30.3 in ENE 2 mph 11 mph 60 % 0 in
12:42 64 °F 49.5 °F 30.3 in NE 4 mph 11 mph 59 % 0 in
12:47 64.4 °F 48.4 °F 30.3 in ENE 4 mph 8 mph 56 % 0 in
12:52 64.6 °F 48 °F 30.3 in ENE 1 mph 8 mph 55 % 0 in
13:02 65.1 °F 48.6 °F 30.3 in ENE 3 mph 10 mph 55 % 0 in
13:12 65.7 °F 48 °F 30.3 in ENE 4 mph 11 mph 53 % 0 in
13:17 65.8 °F 46.8 °F 30.3 in ENE 8 mph 11 mph 50 % 0 in
13:22 65.7 °F 47.1 °F 30.3 in NE 5 mph 11 mph 51 % 0 in
13:32 66.4 °F 47.1 °F 30.3 in East 3 mph 11 mph 50 % 0 in
13:37 66.6 °F 47.3 °F 30.3 in ENE 6 mph 6 mph 50 % 0 in
13:42 66.6 °F 46.2 °F 30.3 in NE 9 mph 9 mph 48 % 0 in
13:52 66.4 °F 45.5 °F 30.3 in East 5 mph 13 mph 47 % 0 in
14:02 66.6 °F 47.8 °F 30.3 in ESE 3 mph 13 mph 51 % 0 in
14:12 67.3 °F 47.5 °F 30.3 in East 2 mph 11 mph 49 % 0 in
14:22 67.1 °F 47.8 °F 30.3 in ENE 5 mph 9 mph 50 % 0 in
14:27 67.5 °F 47.7 °F 30.3 in NE 7 mph 13 mph 49 % 0 in
14:32 68 °F 49.3 °F 30.2 in ESE 2 mph 13 mph 51 % 0 in
14:42 68.2 °F 48.4 °F 30.2 in East 5 mph 9 mph 49 % 0 in
14:47 67.8 °F 47.5 °F 30.2 in East 3 mph 9 mph 48 % 0 in
14:52 68 °F 48.7 °F 30.2 in East 5 mph 9 mph 50 % 0 in
15:02 68.2 °F 49.3 °F 30.2 in East 7 mph 9 mph 51 % 0 in
15:12 68.5 °F 49.1 °F 30.2 in ENE 7 mph 10 mph 50 % 0 in
15:17 68.4 °F 48.9 °F 30.2 in ENE 11 mph 13 mph 50 % 0 in
15:22 68 °F 47.7 °F 30.2 in ENE 3 mph 13 mph 48 % 0 in
15:32 68.5 °F 51.8 °F 30.2 in ENE 5 mph 13 mph 55 % 0 in
15:42 67.6 °F 48.9 °F 30.2 in NNE 7 mph 10 mph 51 % 0 in
15:47 67.8 °F 48.6 °F 30.2 in NE 6 mph 14 mph 50 % 0 in
15:52 67.8 °F 49.1 °F 30.2 in NE 3 mph 14 mph 51 % 0 in
15:57 68.2 °F 48.9 °F 30.2 in ENE 1 mph 11 mph 50 % 0 in
16:02 68.5 °F 49.1 °F 30.2 in ENE 3 mph 11 mph 50 % 0 in
16:12 68.2 °F 48.9 °F 30.2 in East 3 mph 9 mph 50 % 0 in
16:17 68.5 °F 48.6 °F 30.2 in East 1 mph 11 mph 49 % 0 in
16:22 68.5 °F 49.6 °F 30.2 in ENE 6 mph 11 mph 51 % 0 in
16:32 68.4 °F 49.5 °F 30.2 in East 5 mph 9 mph 51 % 0 in
16:37 68.5 °F 48.6 °F 30.2 in ENE 4 mph 10 mph 49 % 0 in
16:42 68.4 °F 49.5 °F 30.2 in NE 7 mph 10 mph 51 % 0 in
16:47 68.5 °F 49.6 °F 30.2 in NE 6 mph 9 mph 51 % 0 in
16:52 68.2 °F 48.9 °F 30.2 in ENE 2 mph 9 mph 50 % 0 in
16:57 68.4 °F 49.5 °F 30.2 in East 2 mph 10 mph 51 % 0 in
17:02 68.7 °F 50.4 °F 30.2 in East 8 mph 10 mph 52 % 0 in
17:07 68.5 °F 48.6 °F 30.2 in NNE 6 mph 10 mph 49 % 0 in
17:12 68.5 °F 49.1 °F 30.2 in NE 8 mph 10 mph 50 % 0 in
17:17 68.7 °F 50.4 °F 30.2 in ENE 4 mph 10 mph 52 % 0 in
17:22 68.5 °F 49.1 °F 30.2 in ENE 3 mph 10 mph 50 % 0 in
17:32 68.9 °F 48.9 °F 30.2 in ESE 3 mph 9 mph 49 % 0 in
17:37 68.9 °F 49.5 °F 30.2 in NNE 5 mph 8 mph 50 % 0 in
17:42 68.9 °F 48.9 °F 30.2 in NE 11 mph 13 mph 49 % 0 in
17:47 68.7 °F 49.3 °F 30.2 in ENE 6 mph 13 mph 50 % 0 in
17:52 68.7 °F 47.7 °F 30.2 in ENE 6 mph 13 mph 47 % 0 in
18:02 69.1 °F 50.2 °F 30.2 in ENE 1 mph 12 mph 51 % 0 in
18:07 69.3 °F 50.9 °F 30.2 in East 3 mph 10 mph 52 % 0 in
18:12 69.3 °F 49.8 °F 30.2 in ENE 7 mph 10 mph 50 % 0 in
18:17 69.1 °F 48 °F 30.2 in ENE 1 mph 9 mph 47 % 0 in
18:22 69.1 °F 48.6 °F 30.2 in NE 3 mph 11 mph 48 % 0 in
18:27 69.1 °F 49.6 °F 30.2 in ENE 8 mph 11 mph 50 % 0 in
18:32 68.9 °F 48.9 °F 30.2 in East 2 mph 12 mph 49 % 0 in
18:37 68.9 °F 50 °F 30.2 in ENE 6 mph 12 mph 51 % 0 in
18:42 68.9 °F 50.5 °F 30.2 in NE 4 mph 12 mph 52 % 0 in
18:52 69.1 °F 51.3 °F 30.2 in East 4 mph 8 mph 53 % 0 in
19:02 68.7 °F 49.8 °F 30.2 in ESE 5 mph 8 mph 51 % 0 in
19:07 68.7 °F 50.9 °F 30.2 in East 3 mph 8 mph 53 % 0 in
19:12 68.5 °F 51.3 °F 30.2 in ENE 4 mph 8 mph 54 % 0 in
19:17 68.5 °F 49.6 °F 30.2 in East 4 mph 10 mph 51 % 0 in
19:22 68.4 °F 49.5 °F 30.2 in ENE 6 mph 10 mph 51 % 0 in
19:32 68.2 °F 50.9 °F 30.1 in East 2 mph 11 mph 54 % 0 in
19:37 68.2 °F 51.4 °F 30.1 in ENE 2 mph 7 mph 55 % 0 in
19:42 67.8 °F 51.6 °F 30.1 in ENE 4 mph 7 mph 56 % 0 in
19:47 67.6 °F 51.8 °F 30.1 in ENE 4 mph 6 mph 57 % 0 in
19:52 67.5 °F 51.3 °F 30.1 in ENE 4 mph 6 mph 56 % 0 in
19:57 67.3 °F 52 °F 30.1 in ENE 2 mph 6 mph 58 % 0 in
20:02 67.1 °F 52.3 °F 30.1 in ENE 2 mph 6 mph 59 % 0 in
20:12 66.6 °F 52.7 °F 30.1 in ENE 2 mph 5 mph 61 % 0 in
20:17 66 °F 52.7 °F 30.1 in East 2 mph 4 mph 62 % 0 in
20:22 65.8 °F 53.2 °F 30.1 in ENE 3 mph 4 mph 64 % 0 in
20:32 65.1 °F 52.7 °F 30.1 in ENE 1 mph 3 mph 64 % 0 in
20:42 64.6 °F 52.5 °F 30.1 in ENE 2 mph 3 mph 65 % 0 in
20:47 64.2 °F 52.7 °F 30.1 in ENE 1 mph 3 mph 66 % 0 in
20:52 64 °F 52 °F 30.1 in ENE 1 mph 3 mph 65 % 0 in
21:02 63.9 °F 51.1 °F 30.1 in NE 2 mph 3 mph 63 % 0 in
21:12 63.7 °F 50.9 °F 30.1 in NNE 2 mph 3 mph 63 % 0 in
21:17 63.7 °F 50.4 °F 30.1 in NE 2 mph 3 mph 62 % 0 in
21:22 63.3 °F 50.5 °F 30.1 in NE 2 mph 3 mph 63 % 0 in
21:32 62.8 °F 51.3 °F 30.1 in NE 2 mph 4 mph 66 % 0 in
21:37 62.4 °F 50.9 °F 30.1 in NE 2 mph 5 mph 66 % 0 in
21:42 62.1 °F 50.9 °F 30.1 in NE 3 mph 5 mph 67 % 0 in
21:47 61.7 °F 51.1 °F 30.1 in NE 2 mph 5 mph 68 % 0 in
21:57 61.3 °F 51.1 °F 30.1 in NE 2 mph 4 mph 69 % 0 in
22:07 60.6 °F 50.7 °F 30.1 in NE 2 mph 4 mph 70 % 0 in
22:12 60.6 °F 50.7 °F 30.1 in NE 2 mph 4 mph 70 % 0 in
22:17 60.6 °F 50.7 °F 30.1 in NNE 3 mph 4 mph 70 % 0 in
22:22 60.6 °F 50.4 °F 30.1 in NE 3 mph 4 mph 69 % 0 in
22:32 60.3 °F 50.4 °F 30.1 in NE 4 mph 5 mph 70 % 0 in
22:42 59.7 °F 50 °F 30.1 in NE 3 mph 5 mph 70 % 0 in
22:47 59.5 °F 50.2 °F 30.1 in NE 3 mph 6 mph 71 % 0 in
22:52 59.2 °F 50.2 °F 30.1 in NE 3 mph 6 mph 72 % 0 in
22:57 58.6 °F 50 °F 30.1 in ENE 3 mph 6 mph 73 % 0 in
23:02 58.6 °F 50 °F 30.1 in NE 4 mph 6 mph 73 % 0 in
23:12 58.6 °F 50 °F 30.1 in ENE 3 mph 6 mph 73 % 0 in
23:17 58.6 °F 50 °F 30.1 in ENE 3 mph 6 mph 73 % 0 in
23:22 58.3 °F 50 °F 30.1 in ENE 2 mph 6 mph 74 % 0 in
23:27 57.9 °F 50 °F 30.1 in East 2 mph 5 mph 75 % 0 in
23:32 57.7 °F 49.8 °F 30.1 in ENE 1 mph 5 mph 75 % 0 in
23:37 57.6 °F 49.6 °F 30.1 in East 2 mph 4 mph 75 % 0 in
23:42 57.6 °F 49.6 °F 30.1 in ENE 1 mph 4 mph 75 % 0 in
23:52 58.1 °F 49.5 °F 30.1 in ENE 3 mph 3 mph 73 % 0 in
23:57 57.9 °F 49.3 °F 30.1 in ENE 3 mph 4 mph 73 % 0 in
Meteo18
Compliments of Weather Underground - 4 mb

Script developed by  Jim McMurry - jmcmurry@mwt.net Adapted for the template by  Wim van der Kuil - Leuven-Template.eu

You find our weather info also at:

European Weather Network

Weather Underground

Equipment we use:

Weather-station
Davis Vue

Weather-program
Meteohub

Weather-server
Raspberry PI 2 B+

Provider
1 and 1

Davis Vue

Meteohub

Raspberry PI 2 B+

1 and 1